createdAt,value
2019-05-26T00:02:11.499Z,58.03
2019-05-26T00:04:46.199Z,55.60
2019-05-26T00:07:30.274Z,51.77
2019-05-26T00:09:54.014Z,51.27
2019-05-26T00:12:26.416Z,45.40
2019-05-26T00:14:58.480Z,44.37
2019-05-26T00:17:30.560Z,45.03
2019-05-26T00:20:05.066Z,38.53
2019-05-26T00:22:39.389Z,36.27
2019-05-26T00:25:12.804Z,34.50
2019-05-26T00:27:44.234Z,35.47
2019-05-26T00:30:17.255Z,32.03
2019-05-26T00:32:48.878Z,27.93
2019-05-26T00:35:20.943Z,34.00
2019-05-26T00:37:53.215Z,30.97
2019-05-26T00:40:25.687Z,27.60
2019-05-26T00:42:57.549Z,40.40
2019-05-26T00:45:32.070Z,34.23
2019-05-26T00:48:04.938Z,35.87
2019-05-26T00:50:37.745Z,41.67
2019-05-26T00:53:11.846Z,31.60
2019-05-26T00:55:45.032Z,34.77
2019-05-26T00:58:17.718Z,35.23
2019-05-26T01:00:49.782Z,30.77
2019-05-26T01:03:21.759Z,33.70
2019-05-26T01:05:54.525Z,29.30
2019-05-26T01:08:26.287Z,35.20
2019-05-26T01:11:01.302Z,34.63
2019-05-26T01:13:31.846Z,35.97
2019-05-26T01:16:03.614Z,31.30
2019-05-26T01:18:35.359Z,33.73
2019-05-26T01:21:07.119Z,30.57
2019-05-26T01:23:41.446Z,33.40
2019-05-26T01:26:13.399Z,32.03
2019-05-26T01:28:45.474Z,30.20
2019-05-26T01:31:18.449Z,27.87
2019-05-26T01:33:51.025Z,27.60
2019-05-26T01:36:24.017Z,29.23
2019-05-26T01:38:55.977Z,34.40
2019-05-26T01:41:28.363Z,34.37
2019-05-26T01:43:59.756Z,33.43
2019-05-26T01:46:31.976Z,39.10
2019-05-26T01:49:06.288Z,49.07
2019-05-26T01:51:37.947Z,55.47
2019-05-26T01:54:10.522Z,58.43
2019-05-26T01:56:43.508Z,61.93
2019-05-26T01:59:15.371Z,72.23
2019-05-26T02:01:49.180Z,77.93
2019-05-26T02:04:21.693Z,79.93
2019-05-26T02:06:55.246Z,86.53
2019-05-26T02:09:27.210Z,85.43
2019-05-26T02:12:01.518Z,99.70
2019-05-26T02:14:33.591Z,93.90
2019-05-26T02:17:05.659Z,93.67
2019-05-26T02:19:37.622Z,96.47
2019-05-26T02:22:09.681Z,93.23
2019-05-26T02:24:41.949Z,99.47
2019-05-26T02:27:14.821Z,95.00
2019-05-26T02:29:47.823Z,107.23
2019-05-26T02:32:20.099Z,98.50
2019-05-26T02:34:53.899Z,105.30
2019-05-26T02:37:25.870Z,131.37
2019-05-26T02:39:57.850Z,118.07
2019-05-26T02:42:29.587Z,112.90
2019-05-26T02:45:01.709Z,103.47
2019-05-26T02:47:34.021Z,111.47
2019-05-26T02:50:08.901Z,103.90
2019-05-26T02:52:41.020Z,97.90
2019-05-26T02:55:15.742Z,106.43
2019-05-26T02:57:48.626Z,88.47
2019-05-26T03:00:38.716Z,88.30
2019-05-26T03:03:13.263Z,84.83
2019-05-26T03:05:46.085Z,80.87
2019-05-26T03:08:18.605Z,68.13
2019-05-26T03:10:52.451Z,66.70
2019-05-26T03:13:24.284Z,66.47
2019-05-26T03:15:58.683Z,57.83
2019-05-26T03:18:33.219Z,55.37
2019-05-26T03:21:05.998Z,57.17
2019-05-26T03:23:41.328Z,48.93
2019-05-26T03:26:16.262Z,50.10
2019-05-26T03:28:49.771Z,57.37
2019-05-26T03:31:22.867Z,52.10
2019-05-26T03:33:56.353Z,48.67
2019-05-26T03:36:30.874Z,44.07
2019-05-26T03:39:02.631Z,43.80
2019-05-26T03:41:36.542Z,46.87
2019-05-26T03:44:09.126Z,49.30
2019-05-26T03:46:42.723Z,47.43
2019-05-26T03:49:14.364Z,48.83
2019-05-26T03:51:48.410Z,48.27
2019-05-26T03:54:20.647Z,46.70
2019-05-26T03:56:53.428Z,48.80
2019-05-26T03:59:25.291Z,53.30
2019-05-26T04:01:58.224Z,52.80
2019-05-26T04:04:30.039Z,56.10
2019-05-26T04:07:01.744Z,58.03
2019-05-26T04:09:35.397Z,67.13
2019-05-26T04:12:07.876Z,83.37
2019-05-26T04:14:41.481Z,81.13
2019-05-26T04:17:18.243Z,90.50
2019-05-26T04:19:50.623Z,87.37
2019-05-26T04:22:22.836Z,93.80
2019-05-26T04:24:55.262Z,89.83
2019-05-26T04:27:27.832Z,94.90
2019-05-26T04:30:00.650Z,82.20
2019-05-26T04:32:33.715Z,83.30
2019-05-26T04:35:07.917Z,67.97
2019-05-26T04:37:39.499Z,75.37
2019-05-26T04:40:25.624Z,59.00
2019-05-26T04:42:45.342Z,54.57
2019-05-26T04:45:21.919Z,47.87
2019-05-26T04:47:54.077Z,42.80
2019-05-26T04:50:27.070Z,40.53
2019-05-26T04:53:06.545Z,35.67
2019-05-26T04:55:34.471Z,35.20
2019-05-26T04:58:07.476Z,31.13
2019-05-26T05:00:40.957Z,34.90
2019-05-26T05:03:14.217Z,32.97
2019-05-26T05:05:46.111Z,30.07
2019-05-26T05:08:17.974Z,32.43
2019-05-26T05:10:49.729Z,29.67
2019-05-26T05:13:24.891Z,35.30
2019-05-26T05:15:55.498Z,30.57
2019-05-26T05:18:30.846Z,35.47
2019-05-26T05:21:02.497Z,33.17
2019-05-26T05:23:34.463Z,28.17
2019-05-26T05:26:07.049Z,25.43
2019-05-26T05:28:39.205Z,21.13
2019-05-26T05:31:11.676Z,17.70
2019-05-26T05:33:46.609Z,16.40
2019-05-26T05:36:18.068Z,16.50
2019-05-26T05:38:51.663Z,17.17
2019-05-26T05:41:25.270Z,18.47
2019-05-26T05:43:57.767Z,13.33
2019-05-26T05:46:31.339Z,13.13
2019-05-26T05:49:03.159Z,12.70
2019-05-26T05:51:37.455Z,12.07
2019-05-26T05:54:08.921Z,12.10
2019-05-26T05:56:40.827Z,10.87
2019-05-26T05:59:12.423Z,13.50
2019-05-26T06:01:45.470Z,12.50
2019-05-26T06:04:17.198Z,13.17
2019-05-26T06:06:49.176Z,14.70
2019-05-26T06:09:24.645Z,7.97
2019-05-26T06:11:57.220Z,7.33
2019-05-26T06:14:29.139Z,11.70
2019-05-26T06:17:03.196Z,9.17
2019-05-26T06:19:34.522Z,9.87
2019-05-26T06:22:06.484Z,7.97
2019-05-26T06:24:37.953Z,7.43
2019-05-26T06:27:10.606Z,14.30
2019-05-26T06:29:57.973Z,7.90
2019-05-26T06:32:16.335Z,7.50
2019-05-26T06:34:48.437Z,8.67
2019-05-26T06:37:19.990Z,8.87
2019-05-26T06:39:51.755Z,12.80
2019-05-26T06:42:24.478Z,10.23
2019-05-26T06:44:55.891Z,18.93
2019-05-26T06:47:27.315Z,13.40
2019-05-26T06:49:59.376Z,11.83
2019-05-26T06:52:32.434Z,14.00
2019-05-26T06:55:04.477Z,10.03
2019-05-26T06:57:38.134Z,12.00
2019-05-26T07:00:10.556Z,13.23
2019-05-26T07:02:42.266Z,25.50
2019-05-26T07:05:18.060Z,10.97
2019-05-26T07:07:47.911Z,11.73
2019-05-26T07:10:19.364Z,11.70
2019-05-26T07:12:52.305Z,13.03
2019-05-26T07:15:23.821Z,12.07
2019-05-26T07:17:55.566Z,11.97
2019-05-26T07:20:28.095Z,10.73
2019-05-26T07:22:59.887Z,12.67
2019-05-26T07:25:31.886Z,14.33
2019-05-26T07:28:03.253Z,10.30
2019-05-26T07:30:35.102Z,10.97
2019-05-26T07:33:06.420Z,10.60
2019-05-26T07:35:38.775Z,10.13
2019-05-26T07:38:10.158Z,12.60
2019-05-26T07:40:41.711Z,7.20
2019-05-26T07:43:13.180Z,8.13
2019-05-26T07:45:44.634Z,7.13
2019-05-26T07:48:16.086Z,8.03
2019-05-26T07:50:47.423Z,8.63
2019-05-26T07:53:18.897Z,6.23
2019-05-26T07:55:50.256Z,10.73
2019-05-26T07:58:21.986Z,8.20
2019-05-26T08:00:53.331Z,6.13
2019-05-26T08:03:25.179Z,8.37
2019-05-26T08:05:57.614Z,6.00
2019-05-26T08:08:29.196Z,7.13
2019-05-26T08:11:02.735Z,7.77
2019-05-26T08:13:34.243Z,7.87
2019-05-26T08:16:05.711Z,7.57
2019-05-26T08:18:37.185Z,6.97
2019-05-26T08:21:09.548Z,6.37
2019-05-26T08:23:41.675Z,8.67
2019-05-26T08:26:13.059Z,9.13
2019-05-26T08:28:44.677Z,7.23
2019-05-26T08:31:17.675Z,14.70
2019-05-26T08:33:49.990Z,6.60
2019-05-26T08:36:23.275Z,5.27
2019-05-26T08:38:54.835Z,5.30
2019-05-26T08:41:27.093Z,5.60
2019-05-26T08:43:59.021Z,9.03
2019-05-26T08:46:31.109Z,10.63
2019-05-26T08:49:02.511Z,5.10
2019-05-26T08:51:33.918Z,7.23
2019-05-26T08:54:06.706Z,7.17
2019-05-26T08:56:38.355Z,9.30
2019-05-26T08:59:11.650Z,8.10
2019-05-26T09:01:45.667Z,8.83
2019-05-26T09:04:18.281Z,10.83
2019-05-26T09:06:49.716Z,5.90
2019-05-26T09:09:22.642Z,8.20
2019-05-26T09:11:56.455Z,9.97
2019-05-26T09:14:30.286Z,11.57
2019-05-26T09:17:02.357Z,9.07
2019-05-26T09:19:35.753Z,17.73
2019-05-26T09:22:09.653Z,8.70
2019-05-26T09:24:42.256Z,10.90
2019-05-26T09:27:16.193Z,16.27
2019-05-26T09:29:48.307Z,14.60
2019-05-26T09:32:21.599Z,14.77
2019-05-26T09:34:54.496Z,17.53
2019-05-26T09:37:26.350Z,12.40
2019-05-26T09:39:57.800Z,15.77
2019-05-26T09:42:29.554Z,11.60
2019-05-26T09:45:01.313Z,12.80
2019-05-26T09:47:32.720Z,12.27
2019-05-26T09:50:05.994Z,9.07
2019-05-26T09:52:37.938Z,7.90
2019-05-26T09:55:10.720Z,9.17
2019-05-26T09:57:46.349Z,11.70
2019-05-26T10:00:19.172Z,10.20
2019-05-26T10:02:52.320Z,9.53
2019-05-26T10:05:24.279Z,8.07
2019-05-26T10:07:56.651Z,11.83
2019-05-26T10:10:29.131Z,7.50
2019-05-26T10:13:01.094Z,9.30
2019-05-26T10:15:33.675Z,10.37
2019-05-26T10:18:06.568Z,8.30
2019-05-26T10:20:38.822Z,11.43
2019-05-26T10:23:10.581Z,8.33
2019-05-26T10:25:42.779Z,7.90
2019-05-26T10:28:15.709Z,6.77
2019-05-26T10:30:49.338Z,10.13
2019-05-26T10:33:20.834Z,8.17
2019-05-26T10:35:52.860Z,11.70
2019-05-26T10:38:25.336Z,9.07
2019-05-26T10:40:58.521Z,7.87
2019-05-26T10:43:45.951Z,9.10
2019-05-26T10:46:06.640Z,9.67
2019-05-26T10:48:38.398Z,12.07
2019-05-26T10:51:10.261Z,10.57
2019-05-26T10:53:42.427Z,9.30
2019-05-26T10:56:17.060Z,9.53
2019-05-26T10:58:49.421Z,10.07
2019-05-26T11:01:23.912Z,14.10
2019-05-26T11:03:56.934Z,10.43
2019-05-26T11:06:28.493Z,8.00
2019-05-26T11:09:00.243Z,8.37
2019-05-26T11:11:32.539Z,8.00
2019-05-26T11:14:05.193Z,6.83
2019-05-26T11:16:36.762Z,10.67
2019-05-26T11:19:09.422Z,10.27
2019-05-26T11:21:42.513Z,6.20
2019-05-26T11:24:18.883Z,8.67
2019-05-26T11:26:51.110Z,5.90
2019-05-26T11:29:22.907Z,6.77
2019-05-26T11:31:56.100Z,5.70
2019-05-26T11:34:27.973Z,6.60
2019-05-26T11:36:59.925Z,6.90
2019-05-26T11:39:32.302Z,8.60
2019-05-26T11:42:13.226Z,9.60
2019-05-26T11:44:39.855Z,7.87
2019-05-26T11:47:11.352Z,8.53
2019-05-26T11:49:43.323Z,9.10
2019-05-26T11:52:20.352Z,10.70
2019-05-26T11:54:54.259Z,7.73
2019-05-26T11:57:28.937Z,10.83
2019-05-26T12:00:00.987Z,9.20
2019-05-26T12:02:32.928Z,8.80
2019-05-26T12:05:08.169Z,9.47
2019-05-26T12:07:39.723Z,9.13
2019-05-26T12:10:14.689Z,9.20
2019-05-26T12:12:50.386Z,6.43
2019-05-26T12:15:22.220Z,6.13
2019-05-26T12:17:53.647Z,6.63
2019-05-26T12:20:28.111Z,6.60
2019-05-26T12:23:03.144Z,6.87
2019-05-26T12:25:34.590Z,6.70
2019-05-26T12:28:06.350Z,7.13
2019-05-26T12:30:37.715Z,9.77
2019-05-26T12:33:11.079Z,10.63
2019-05-26T12:35:44.365Z,8.57
2019-05-26T12:38:17.593Z,7.67
2019-05-26T12:40:57.167Z,8.73
2019-05-26T12:43:29.247Z,7.10
2019-05-26T12:46:01.779Z,10.97
2019-05-26T12:48:33.192Z,7.83
2019-05-26T12:51:04.750Z,8.63
2019-05-26T12:53:36.879Z,9.20
2019-05-26T12:56:08.343Z,12.80
2019-05-26T12:58:40.198Z,8.47
2019-05-26T13:01:13.239Z,10.17
2019-05-26T13:03:45.460Z,13.27
2019-05-26T13:06:17.763Z,16.53
2019-05-26T13:08:49.812Z,19.67
2019-05-26T13:11:22.920Z,16.53
2019-05-26T13:13:55.538Z,11.83
2019-05-26T13:16:28.255Z,11.87
2019-05-26T13:18:59.597Z,9.67
2019-05-26T13:21:31.620Z,11.17
2019-05-26T13:24:04.644Z,9.57
2019-05-26T13:26:36.205Z,9.70
2019-05-26T13:29:07.707Z,8.83
2019-05-26T13:31:40.340Z,11.57
2019-05-26T13:34:12.602Z,9.07
2019-05-26T13:36:44.173Z,13.27
2019-05-26T13:39:15.796Z,12.20
2019-05-26T13:41:47.193Z,13.97
2019-05-26T13:44:18.551Z,9.60
2019-05-26T13:46:53.819Z,9.03
2019-05-26T13:49:25.155Z,13.10
2019-05-26T13:51:59.252Z,11.53
2019-05-26T13:54:31.190Z,10.90
2019-05-26T13:57:02.614Z,11.80
2019-05-26T13:59:34.489Z,12.13
2019-05-26T14:02:06.044Z,14.87
2019-05-26T14:04:40.082Z,11.57
2019-05-26T14:07:13.325Z,10.70
2019-05-26T14:09:47.133Z,8.47
2019-05-26T14:12:20.349Z,9.60
2019-05-26T14:14:52.268Z,6.27
2019-05-26T14:17:24.333Z,7.60
2019-05-26T14:19:57.164Z,7.97
2019-05-26T14:22:28.955Z,10.83
2019-05-26T14:25:00.458Z,17.40
2019-05-26T14:27:34.057Z,39.00
2019-05-26T14:30:07.354Z,29.73
2019-05-26T14:32:38.781Z,37.73
2019-05-26T14:35:11.301Z,38.30
2019-05-26T14:37:43.834Z,40.10
2019-05-26T14:40:15.359Z,32.90
2019-05-26T14:42:49.946Z,21.20
2019-05-26T14:45:21.802Z,16.07
2019-05-26T14:47:56.307Z,13.07
2019-05-26T14:50:27.840Z,10.53
2019-05-26T14:52:59.611Z,9.73
2019-05-26T14:55:31.855Z,7.90
2019-05-26T14:58:15.279Z,10.73
2019-05-26T15:00:37.248Z,8.17
2019-05-26T15:03:08.628Z,7.60
2019-05-26T15:05:42.442Z,9.50
2019-05-26T15:08:14.038Z,8.57
2019-05-26T15:10:45.564Z,9.83
2019-05-26T15:13:20.241Z,8.50
2019-05-26T15:15:51.888Z,8.13
2019-05-26T15:18:23.218Z,9.03
2019-05-26T15:20:56.133Z,11.47
2019-05-26T15:23:32.422Z,10.20
2019-05-26T15:26:06.608Z,8.37
2019-05-26T15:28:37.883Z,9.67
2019-05-26T15:31:11.383Z,8.97
2019-05-26T15:33:43.002Z,7.67
2019-05-26T15:36:16.167Z,15.23
2019-05-26T15:38:50.249Z,13.60
2019-05-26T15:41:21.823Z,8.53
2019-05-26T15:43:55.594Z,7.23
2019-05-26T15:46:27.182Z,8.77
2019-05-26T15:48:58.632Z,9.93
2019-05-26T15:51:30.175Z,8.23
2019-05-26T15:54:02.927Z,7.33
2019-05-26T15:56:34.451Z,7.97
2019-05-26T15:59:05.870Z,11.07
2019-05-26T16:01:39.581Z,9.50
2019-05-26T16:04:12.322Z,7.73
2019-05-26T16:06:45.165Z,9.10
2019-05-26T16:09:17.247Z,15.57
2019-05-26T16:11:48.792Z,9.10
2019-05-26T16:14:22.375Z,8.03
2019-05-26T16:16:53.841Z,12.93
2019-05-26T16:19:28.185Z,10.63
2019-05-26T16:22:01.357Z,8.70
2019-05-26T16:31:29.261Z,8.77
2019-05-26T16:34:04.624Z,8.73
2019-05-26T16:36:38.645Z,9.50
2019-05-26T16:39:36.148Z,8.40
2019-05-26T16:42:08.385Z,10.00
2019-05-26T16:44:38.072Z,9.90
2019-05-26T16:47:10.830Z,10.07
2019-05-26T16:49:47.669Z,8.33
2019-05-26T16:52:25.123Z,10.83
2019-05-26T16:54:57.051Z,14.90
2019-05-26T16:57:28.817Z,10.83
2019-05-26T17:00:01.578Z,13.00
2019-05-26T17:02:33.565Z,9.53
2019-05-26T17:05:07.500Z,9.03
2019-05-26T17:07:42.197Z,19.27
2019-05-26T17:10:14.263Z,10.20
2019-05-26T17:12:45.916Z,13.50
2019-05-26T17:15:19.328Z,9.57
2019-05-26T17:17:51.994Z,9.60
2019-05-26T17:20:26.040Z,10.17
2019-05-26T17:23:01.113Z,11.77
2019-05-26T17:25:50.614Z,13.13
2019-05-26T17:28:22.992Z,10.03
2019-05-26T17:30:54.849Z,10.37
2019-05-26T17:33:28.571Z,9.70
2019-05-26T17:36:00.004Z,10.57
2019-05-26T17:38:34.975Z,9.30
2019-05-26T17:41:08.123Z,10.70
2019-05-26T17:43:39.983Z,10.07
2019-05-26T17:46:15.036Z,16.07
2019-05-26T17:48:45.962Z,12.90
2019-05-26T17:51:19.739Z,10.23
2019-05-26T17:53:52.646Z,9.10
2019-05-26T17:56:24.094Z,11.27
2019-05-26T17:58:55.768Z,9.47
2019-05-26T18:01:27.504Z,14.83
2019-05-26T18:04:03.967Z,9.03
2019-05-26T18:06:35.527Z,8.97
2019-05-26T18:09:11.419Z,11.83
2019-05-26T18:11:45.909Z,11.30
2019-05-26T18:14:20.227Z,9.67
2019-05-26T18:16:52.184Z,10.90
2019-05-26T18:19:29.808Z,11.33
2019-05-26T18:22:04.727Z,37.33
2019-05-26T18:24:36.999Z,14.53
2019-05-26T18:27:08.543Z,19.27
2019-05-26T18:29:41.749Z,24.83
2019-05-26T18:32:17.608Z,24.53
2019-05-26T18:34:49.412Z,30.23
2019-05-26T18:37:21.302Z,33.10
2019-05-26T18:39:54.808Z,43.80
2019-05-26T18:42:26.358Z,61.17
2019-05-26T18:44:58.240Z,81.07
2019-05-26T18:47:31.001Z,75.33
2019-05-26T18:50:06.316Z,68.57
2019-05-26T18:52:38.923Z,76.37
2019-05-26T18:55:10.745Z,69.73
2019-05-26T18:57:42.409Z,62.37
2019-05-26T19:00:14.759Z,64.33
2019-05-26T19:02:46.505Z,57.60
2019-05-26T19:05:32.514Z,58.93
2019-05-26T19:07:51.856Z,48.53
2019-05-26T19:10:23.420Z,49.73
2019-05-26T19:12:54.955Z,52.60
2019-05-26T19:15:26.592Z,37.60
2019-05-26T19:17:58.140Z,49.60
2019-05-26T19:20:29.769Z,39.80
2019-05-26T19:23:01.768Z,41.27
2019-05-26T19:25:33.535Z,43.83
2019-05-26T19:28:05.600Z,48.73
2019-05-26T19:30:37.109Z,48.97
2019-05-26T19:33:10.362Z,56.57
2019-05-26T19:35:42.030Z,54.77
2019-05-26T19:38:13.465Z,50.47
2019-05-26T19:40:46.418Z,43.03
2019-05-26T19:43:18.340Z,46.67
2019-05-26T19:45:51.439Z,42.43
2019-05-26T19:48:35.725Z,44.53
2019-05-26T19:50:58.336Z,42.37
2019-05-26T19:53:29.873Z,32.00
2019-05-26T19:56:01.569Z,33.23
2019-05-26T19:58:34.642Z,28.87
2019-05-26T20:01:06.180Z,32.40
2019-05-26T20:03:37.750Z,31.37
2019-05-26T20:06:11.535Z,26.93
2019-05-26T20:08:44.667Z,36.03
2019-05-26T20:11:17.011Z,27.37
2019-05-26T20:13:48.801Z,28.93
2019-05-26T20:16:22.049Z,27.40
2019-05-26T20:18:53.630Z,26.67
2019-05-26T20:21:26.578Z,41.23
2019-05-26T20:23:58.329Z,28.57
2019-05-26T20:26:32.277Z,23.90
2019-05-26T20:29:04.137Z,28.07
2019-05-26T20:31:36.623Z,26.63
2019-05-26T20:34:08.580Z,26.03
2019-05-26T20:36:42.287Z,29.30
2019-05-26T20:39:15.724Z,25.37
2019-05-26T20:41:47.537Z,18.97
2019-05-26T20:44:19.302Z,20.87
2019-05-26T20:46:51.259Z,25.27
2019-05-26T20:49:23.085Z,21.80
2019-05-26T20:51:54.882Z,25.03
2019-05-26T20:54:26.637Z,22.93
2019-05-26T20:56:58.828Z,23.60
2019-05-26T20:59:33.424Z,22.27
2019-05-26T21:02:05.900Z,22.87
2019-05-26T21:04:38.682Z,19.70
2019-05-26T21:07:10.767Z,19.63
2019-05-26T21:09:44.104Z,22.83
2019-05-26T21:12:16.204Z,20.47
2019-05-26T21:14:48.069Z,26.40
2019-05-26T21:17:21.458Z,27.27
2019-05-26T21:19:54.944Z,21.70
2019-05-26T21:22:27.044Z,20.43
2019-05-26T21:24:58.991Z,20.90
2019-05-26T21:27:30.752Z,18.00
2019-05-26T21:30:06.468Z,22.13
2019-05-26T21:32:39.385Z,21.30
2019-05-26T21:35:12.407Z,19.73
2019-05-26T21:37:46.907Z,27.80
2019-05-26T21:40:18.854Z,20.03
2019-05-26T21:42:50.610Z,25.60
2019-05-26T21:45:22.269Z,27.23
2019-05-26T21:47:54.023Z,27.30
2019-05-26T21:50:28.708Z,39.63
2019-05-26T21:53:00.307Z,34.67
2019-05-26T21:55:32.367Z,36.77
2019-05-26T21:58:04.864Z,40.20
2019-05-26T22:00:44.754Z,42.27
2019-05-26T22:03:17.281Z,44.37
2019-05-26T22:05:49.268Z,38.87
2019-05-26T22:08:21.195Z,40.50
2019-05-26T22:10:53.573Z,35.67
2019-05-26T22:13:25.433Z,33.10
2019-05-26T22:15:57.900Z,30.00
2019-05-26T22:18:29.862Z,31.40
2019-05-26T22:21:02.439Z,33.73
2019-05-26T22:23:34.810Z,34.23
2019-05-26T22:26:07.615Z,50.97
2019-05-26T22:28:41.300Z,54.37
2019-05-26T22:31:13.068Z,55.43
2019-05-26T22:33:45.426Z,55.20
2019-05-26T22:36:17.909Z,47.90
2019-05-26T22:38:49.561Z,47.13
2019-05-26T22:41:21.110Z,44.10
2019-05-26T22:43:52.866Z,41.07
2019-05-26T22:46:24.726Z,40.50
2019-05-26T22:48:57.221Z,34.80
2019-05-26T22:51:29.984Z,31.37
2019-05-26T22:54:03.486Z,31.83
2019-05-26T22:56:35.342Z,31.87
2019-05-26T22:59:07.200Z,25.87
2019-05-26T23:01:39.267Z,24.17
2019-05-26T23:04:12.050Z,20.33
2019-05-26T23:06:44.837Z,17.43
2019-05-26T23:09:19.147Z,20.13
2019-05-26T23:11:52.646Z,16.93
2019-05-26T23:14:24.410Z,16.37
2019-05-26T23:16:57.186Z,16.33
2019-05-26T23:19:29.766Z,13.50
2019-05-26T23:22:01.729Z,16.27
2019-05-26T23:24:34.404Z,16.53
2019-05-26T23:27:06.674Z,12.43
2019-05-26T23:29:39.059Z,12.60
2019-05-26T23:32:10.915Z,15.77
2019-05-26T23:34:42.972Z,12.60
2019-05-26T23:37:15.144Z,14.10
2019-05-26T23:39:48.636Z,12.57
2019-05-26T23:42:22.137Z,14.73
2019-05-26T23:44:54.002Z,12.57
2019-05-26T23:47:26.678Z,17.40
2019-05-26T23:49:58.496Z,14.97
2019-05-26T23:52:32.442Z,12.30
2019-05-26T23:55:05.532Z,14.10
2019-05-26T23:57:37.598Z,11.70
